Time;durP1;ratioP1;P1;durP2;ratioP2;P2;SDS_P1;SDS_P2;PMS_P1;PMS_P2;Temp;Humidity;BMP_temperature;BMP_pressure;BME280_temperature;BME280_humidity;BME280_pressure;Samples;Min_cycle;Max_cycle;Signal;HPM_P1;HPM_P2
2021/12/14 00:01:09;;;;;;;18.45;10.95;;;8.30;99.90;;;;;;4992128;28;20445;-66
2021/12/14 00:03:39;;;;;;;19.80;11.90;;;8.30;99.90;;;;;;5000156;28;20524;-66
2021/12/14 00:06:04;;;;;;;20.58;11.27;;;8.30;99.90;;;;;;5012594;28;20124;-67
2021/12/14 00:08:36;;;;;;;17.63;12.13;;;8.30;99.90;;;;;;5009411;28;20116;-67
2021/12/14 00:13:47;;;;;;;18.15;12.10;;;8.30;99.90;;;;;;5009114;28;20052;-67
2021/12/14 00:16:15;;;;;;;20.05;11.60;;;8.30;99.90;;;;;;5010208;28;20033;-68
2021/12/14 00:18:41;;;;;;;22.58;12.05;;;8.30;99.90;;;;;;5010653;28;20029;-67
2021/12/14 00:21:19;;;;;;;19.33;11.80;;;8.20;99.90;;;;;;4993589;28;20034;-68
2021/12/14 00:24:06;;;;;;;16.42;11.50;;;8.20;99.90;;;;;;5000669;28;20156;-66
2021/12/14 00:26:43;;;;;;;16.58;10.73;;;8.30;99.90;;;;;;5010311;28;20041;-67
2021/12/14 00:29:15;;;;;;;22.00;11.82;;;8.20;99.90;;;;;;5009579;28;20107;-67
2021/12/14 00:31:41;;;;;;;17.92;11.13;;;8.20;99.90;;;;;;4993529;28;20033;-67
2021/12/14 00:34:07;;;;;;;18.83;11.45;;;8.20;99.90;;;;;;5021103;28;20045;-67
2021/12/14 00:36:35;;;;;;;21.05;11.88;;;8.20;99.90;;;;;;4997137;28;20091;-68
2021/12/14 00:39:04;;;;;;;18.15;11.75;;;8.20;99.90;;;;;;4992317;28;20528;-67
2021/12/14 00:41:35;;;;;;;16.50;11.35;;;8.20;99.90;;;;;;5010738;28;20461;-67
2021/12/14 00:44:02;;;;;;;19.25;11.07;;;8.20;99.90;;;;;;5008819;28;20041;-66
2021/12/14 00:46:27;;;;;;;19.08;10.82;;;8.20;99.90;;;;;;5008720;28;20029;-68
2021/12/14 00:48:54;;;;;;;16.88;11.20;;;8.20;99.90;;;;;;5008388;28;20107;-67
2021/12/14 00:51:26;;;;;;;17.25;11.23;;;8.20;99.90;;;;;;5011904;28;20119;-67
2021/12/14 00:53:51;;;;;;;20.02;11.65;;;8.20;99.90;;;;;;4993312;28;20033;-66
2021/12/14 00:56:17;;;;;;;20.35;11.25;;;8.20;99.90;;;;;;5011138;28;20729;-67
2021/12/14 00:58:43;;;;;;;19.10;11.90;;;8.20;99.90;;;;;;5006499;28;20040;-66
2021/12/14 01:01:17;;;;;;;21.10;11.13;;;8.20;99.90;;;;;;5009553;28;20037;-67
2021/12/14 01:03:47;;;;;;;17.88;11.57;;;8.20;99.90;;;;;;4993297;28;20064;-67
2021/12/14 01:06:14;;;;;;;18.02;11.32;;;8.20;99.90;;;;;;5012248;28;20381;-67
2021/12/14 01:08:43;;;;;;;18.75;11.85;;;8.20;99.90;;;;;;5009448;28;20048;-67
2021/12/14 01:11:21;;;;;;;18.17;11.85;;;8.20;99.90;;;;;;5007385;28;20041;-67
2021/12/14 01:13:57;;;;;;;19.13;11.85;;;8.20;99.90;;;;;;5010080;28;20033;-66
2021/12/14 01:16:47;;;;;;;19.30;11.40;;;8.20;99.90;;;;;;4993420;28;20045;-66
2021/12/14 01:19:19;;;;;;;23.88;12.02;;;8.20;99.90;;;;;;5008414;28;20030;-66
2021/12/14 01:27:10;;;;;;;21.42;12.63;;;8.20;99.90;;;;;;5028723;28;20848;-66
2021/12/14 01:29:37;;;;;;;;;;;8.20;99.90;;;;;;5029366;28;20044;-68
2021/12/14 01:32:03;;;;;;;22.30;12.82;;;8.10;99.90;;;;;;5030732;28;19917;-67
2021/12/14 01:34:31;;;;;;;20.20;12.15;;;8.10;99.90;;;;;;5030355;28;20049;-67
2021/12/14 01:37:03;;;;;;;20.92;12.90;;;8.10;99.90;;;;;;5031305;28;20044;-67
2021/12/14 01:42:22;;;;;;;20.15;12.70;;;8.10;99.90;;;;;;5015134;28;20068;-67
2021/12/14 01:44:53;;;;;;;21.27;12.63;;;8.10;99.90;;;;;;5027750;28;20068;-66
2021/12/14 01:47:23;;;;;;;25.98;13.93;;;8.10;99.90;;;;;;5029129;28;20139;-67
2021/12/14 01:49:49;;;;;;;26.70;14.25;;;8.10;99.90;;;;;;5029291;28;20112;-67
2021/12/14 01:52:23;;;;;;;21.15;13.45;;;8.10;99.90;;;;;;5026063;28;20373;-67
2021/12/14 01:54:53;;;;;;;25.45;15.00;;;8.10;99.90;;;;;;5025387;28;20388;-67
2021/12/14 01:57:22;;;;;;;24.42;14.00;;;8.10;99.90;;;;;;5047606;28;20067;-67
2021/12/14 01:59:49;;;;;;;24.70;13.90;;;8.00;99.90;;;;;;5028518;28;20041;-67
2021/12/14 02:02:41;;;;;;;25.52;14.45;;;8.10;99.90;;;;;;5013511;28;20059;-67
2021/12/14 02:05:26;;;;;;;28.55;14.93;;;8.10;99.90;;;;;;5031083;28;20127;-67
2021/12/14 02:07:53;;;;;;;23.27;14.25;;;8.10;99.90;;;;;;5032100;28;20071;-66
2021/12/14 02:10:29;;;;;;;25.55;14.50;;;8.10;99.90;;;;;;5016755;28;20143;-67
2021/12/14 02:12:56;;;;;;;26.88;14.70;;;8.10;99.90;;;;;;5031317;28;20128;-66
2021/12/14 02:15:28;;;;;;;24.73;14.88;;;8.10;99.90;;;;;;5016604;28;20056;-67
2021/12/14 02:17:56;;;;;;;28.98;14.95;;;8.10;99.90;;;;;;5032012;28;20041;-68
2021/12/14 02:20:31;;;;;;;28.08;15.43;;;8.10;99.90;;;;;;5030117;28;20045;-66
2021/12/14 02:22:58;;;;;;;26.25;15.23;;;8.10;99.90;;;;;;5031311;28;20057;-68
2021/12/14 02:25:24;;;;;;;25.83;15.48;;;8.10;99.90;;;;;;5028496;28;20049;-67
2021/12/14 02:27:51;;;;;;;29.92;14.82;;;8.10;99.90;;;;;;5048659;28;20120;-67
2021/12/14 02:30:21;;;;;;;30.48;15.48;;;8.10;99.90;;;;;;5030360;28;20040;-67
2021/12/14 02:32:48;;;;;;;28.83;15.40;;;8.10;99.90;;;;;;5031901;28;20033;-67
2021/12/14 02:35:18;;;;;;;29.67;15.35;;;8.10;99.90;;;;;;5034145;28;20123;-67
2021/12/14 02:37:53;;;;;;;28.48;14.90;;;8.10;99.90;;;;;;5033777;28;20420;-67
2021/12/14 02:40:53;;;;;;;27.00;15.82;;;8.10;99.90;;;;;;5016300;28;20552;-67
2021/12/14 02:43:19;;;;;;;26.73;15.20;;;8.10;99.90;;;;;;5032256;28;20059;-67
2021/12/14 02:45:44;;;;;;;26.92;15.80;;;8.10;99.90;;;;;;5031581;28;20033;-67
2021/12/14 02:48:10;;;;;;;27.65;15.98;;;8.10;99.90;;;;;;5031225;28;20043;-67
2021/12/14 02:50:37;;;;;;;30.00;15.77;;;8.10;99.90;;;;;;5034360;28;20464;-68
2021/12/14 02:53:04;;;;;;;26.17;14.90;;;8.20;99.90;;;;;;5031087;28;20499;-67
2021/12/14 02:55:30;;;;;;;28.90;16.35;;;8.10;99.90;;;;;;5011581;28;20052;-67
2021/12/14 02:57:59;;;;;;;29.30;15.77;;;8.10;99.90;;;;;;5012828;28;20045;-67
2021/12/14 03:00:48;;;;;;;28.25;15.52;;;8.20;99.90;;;;;;5026140;28;20047;-66
2021/12/14 03:03:15;;;;;;;31.55;16.13;;;8.20;99.90;;;;;;5028561;28;20044;-67
2021/12/14 03:05:44;;;;;;;29.98;15.77;;;8.20;99.90;;;;;;5032465;28;20049;-67
2021/12/14 03:08:25;;;;;;;26.75;15.55;;;8.20;99.90;;;;;;5032150;28;20032;-67
2021/12/14 03:11:10;;;;;;;26.77;15.38;;;8.20;99.90;;;;;;5033376;28;20393;-67
2021/12/14 03:13:44;;;;;;;27.30;15.35;;;8.20;99.90;;;;;;5029354;28;20033;-67
2021/12/14 03:16:23;;;;;;;28.67;16.48;;;8.10;99.90;;;;;;5031481;28;20115;-67
2021/12/14 03:18:50;;;;;;;29.25;15.52;;;8.10;99.90;;;;;;5026544;28;20083;-66
2021/12/14 03:21:20;;;;;;;29.38;17.13;;;8.10;99.90;;;;;;5034084;28;20349;-66
2021/12/14 03:23:59;;;;;;;29.77;16.70;;;8.00;99.90;;;;;;5029849;28;20068;-67
2021/12/14 03:26:28;;;;;;;30.13;16.08;;;8.00;99.90;;;;;;5033703;28;20350;-67
2021/12/14 03:28:56;;;;;;;33.30;17.88;;;8.00;99.90;;;;;;5028475;28;20056;-67
2021/12/14 03:31:35;;;;;;;31.05;16.85;;;8.00;99.90;;;;;;5031328;28;20055;-67
2021/12/14 03:34:30;;;;;;;31.23;17.13;;;7.90;99.90;;;;;;5014989;28;20037;-66
2021/12/14 03:37:00;;;;;;;31.83;16.17;;;7.90;99.90;;;;;;5032738;28;20053;-67
2021/12/14 03:39:47;;;;;;;32.28;16.73;;;7.90;99.90;;;;;;5032415;28;20337;-67
2021/12/14 03:42:37;;;;;;;32.70;16.98;;;8.00;99.90;;;;;;5032548;28;20060;-67
2021/12/14 03:45:19;;;;;;;34.08;17.42;;;7.90;99.90;;;;;;5047486;28;20053;-66
2021/12/14 03:47:50;;;;;;;30.60;16.63;;;7.90;99.90;;;;;;5043921;28;20043;-67
2021/12/14 03:50:21;;;;;;;34.05;17.98;;;7.90;99.90;;;;;;5030439;28;20033;-68
2021/12/14 03:52:47;;;;;;;;;;;7.80;99.90;;;;;;5030801;28;20068;-67
2021/12/14 03:55:17;;;;;;;37.47;18.33;;;7.80;99.90;;;;;;5031462;28;19951;-68
2021/12/14 03:57:43;;;;;;;38.65;18.25;;;7.80;99.90;;;;;;5027335;28;20033;-67
2021/12/14 04:00:16;;;;;;;36.35;18.42;;;7.80;99.90;;;;;;5049384;28;20408;-67
2021/12/14 04:02:41;;;;;;;39.45;18.45;;;7.80;99.90;;;;;;5028513;28;20041;-67
2021/12/14 04:05:12;;;;;;;37.35;19.52;;;7.80;99.90;;;;;;5027521;28;20594;-66
2021/12/14 04:07:41;;;;;;;37.35;18.67;;;7.90;99.90;;;;;;5032119;28;20120;-67
2021/12/14 04:10:19;;;;;;;35.53;18.40;;;7.80;99.90;;;;;;5050553;28;20091;-66
2021/12/14 04:12:45;;;;;;;40.10;20.10;;;7.90;99.90;;;;;;5028527;28;20369;-68
2021/12/14 04:15:11;;;;;;;37.28;19.85;;;7.90;99.90;;;;;;5031882;28;20063;-67
2021/12/14 04:17:38;;;;;;;38.58;20.10;;;8.00;99.90;;;;;;5027529;28;20446;-67
2021/12/14 04:20:15;;;;;;;43.03;20.48;;;7.90;99.90;;;;;;5030263;28;20079;-66
2021/12/14 04:22:48;;;;;;;40.85;20.58;;;7.90;99.90;;;;;;5029590;28;20052;-66
2021/12/14 04:25:17;;;;;;;42.22;20.48;;;7.90;99.90;;;;;;5015436;28;20094;-68
2021/12/14 04:27:43;;;;;;;40.97;19.92;;;7.90;99.90;;;;;;5012336;28;20041;-67
2021/12/14 04:30:12;;;;;;;40.63;21.00;;;7.90;99.90;;;;;;5031028;28;20041;-66
2021/12/14 04:32:38;;;;;;;39.25;20.00;;;7.90;99.90;;;;;;5031069;28;20338;-66
2021/12/14 04:35:06;;;;;;;44.72;22.38;;;7.90;99.90;;;;;;5030464;28;20041;-67
2021/12/14 04:37:37;;;;;;;43.22;21.77;;;7.90;99.90;;;;;;5030378;28;20049;-67
2021/12/14 04:40:22;;;;;;;42.00;20.50;;;8.00;99.90;;;;;;5023369;28;20068;-67
2021/12/14 04:53:56;;;;;;;37.95;20.52;;;8.00;99.90;;;;;;5030043;28;20115;-67
2021/12/14 04:56:43;;;;;;;41.65;22.02;;;8.00;99.90;;;;;;5028019;28;20041;-67
2021/12/14 04:59:23;;;;;;;36.95;19.38;;;8.00;99.90;;;;;;5024604;28;20040;-65
2021/12/14 05:01:50;;;;;;;38.88;20.20;;;8.00;99.90;;;;;;5011384;28;20508;-67
2021/12/14 05:04:21;;;;;;;41.05;21.27;;;8.00;99.90;;;;;;5031779;28;20037;-67
2021/12/14 05:06:54;;;;;;;41.22;20.80;;;8.00;99.90;;;;;;5031588;28;20118;-67
2021/12/14 05:09:33;;;;;;;39.92;20.80;;;8.10;99.90;;;;;;5032162;28;20045;-67
2021/12/14 05:12:20;;;;;;;40.45;20.38;;;8.10;99.90;;;;;;5022583;28;20068;-71
2021/12/14 05:14:47;;;;;;;40.95;19.90;;;8.10;99.90;;;;;;5027224;28;20041;-68
2021/12/14 05:17:20;;;;;;;41.65;21.60;;;8.10;99.90;;;;;;5031443;28;20049;-67
2021/12/14 05:19:48;;;;;;;44.05;21.88;;;8.10;99.90;;;;;;5031725;28;20045;-67
2021/12/14 05:22:18;;;;;;;41.58;21.58;;;8.10;99.90;;;;;;5029657;28;20049;-67
2021/12/14 05:24:48;;;;;;;43.03;21.60;;;8.10;99.90;;;;;;5030100;28;20041;-67
2021/12/14 05:27:25;;;;;;;38.63;20.02;;;8.10;99.90;;;;;;5046502;28;20120;-67
2021/12/14 05:29:51;;;;;;;41.15;22.40;;;8.10;99.90;;;;;;5011251;28;20044;-67
2021/12/14 05:32:18;;;;;;;42.08;21.20;;;8.10;99.90;;;;;;5030570;28;20037;-66
2021/12/14 05:34:49;;;;;;;38.53;20.00;;;8.20;99.90;;;;;;5030273;28;20079;-66
2021/12/14 05:37:26;;;;;;;43.83;22.02;;;8.20;99.90;;;;;;5047572;28;20041;-67
2021/12/14 05:39:58;;;;;;;37.33;20.38;;;8.20;99.90;;;;;;5031436;28;20457;-67
2021/12/14 05:45:18;;;;;;;45.88;22.65;;;8.20;99.90;;;;;;5027228;28;20050;-67
2021/12/14 05:47:49;;;;;;;42.83;22.45;;;8.20;99.90;;;;;;5029075;28;20072;-67
2021/12/14 05:50:25;;;;;;;42.15;21.77;;;8.20;99.90;;;;;;5033367;28;20135;-66
2021/12/14 05:52:51;;;;;;;44.53;21.95;;;8.20;99.90;;;;;;5033403;28;20443;-67
2021/12/14 05:55:24;;;;;;;44.88;22.02;;;8.20;99.90;;;;;;5033804;28;20037;-66
2021/12/14 05:57:49;;;;;;;45.85;23.27;;;8.10;99.90;;;;;;5031400;28;20549;-67
2021/12/14 06:00:17;;;;;;;42.67;21.35;;;8.20;99.90;;;;;;5016148;28;20120;-66
2021/12/14 06:02:44;;;;;;;44.28;22.55;;;8.10;99.90;;;;;;5031190;28;20052;-66
2021/12/14 06:05:15;;;;;;;44.13;23.02;;;8.10;99.90;;;;;;5049217;28;20065;-67
2021/12/14 06:07:41;;;;;;;42.15;21.67;;;8.20;99.90;;;;;;5018056;28;20033;-67
2021/12/14 06:10:08;;;;;;;47.35;23.20;;;8.20;99.90;;;;;;5032089;28;20601;-67
2021/12/14 06:12:36;;;;;;;48.20;23.67;;;8.20;99.90;;;;;;5017341;28;20116;-67
2021/12/14 06:15:04;;;;;;;48.85;24.00;;;8.10;99.90;;;;;;5051767;28;20037;-67
2021/12/14 06:17:33;;;;;;;50.58;24.83;;;8.00;99.90;;;;;;5034083;28;20045;-66
2021/12/14 06:20:18;;;;;;;51.55;25.35;;;8.00;99.90;;;;;;5035354;28;20116;-67
2021/12/14 06:22:44;;;;;;;49.00;24.90;;;8.00;99.90;;;;;;5032681;28;20072;-66
2021/12/14 06:25:16;;;;;;;49.45;24.23;;;8.00;99.90;;;;;;5021611;28;20052;-66
2021/12/14 06:27:45;;;;;;;54.97;26.42;;;8.00;99.90;;;;;;5049335;28;20033;-66
2021/12/14 06:30:17;;;;;;;54.70;25.42;;;8.00;99.90;;;;;;5031871;28;20049;-70
2021/12/14 06:32:57;;;;;;;52.67;25.15;;;7.90;99.90;;;;;;5032935;28;20052;-67
2021/12/14 06:35:32;;;;;;;55.75;26.05;;;8.00;99.90;;;;;;5033274;28;20329;-67
2021/12/14 06:40:39;;;;;;;53.58;26.35;;;7.90;99.90;;;;;;5035075;28;20090;-67
2021/12/14 06:43:10;;;;;;;58.05;26.67;;;7.90;99.90;;;;;;5027878;28;20766;-67
2021/12/14 06:45:39;;;;;;;56.10;26.00;;;7.90;99.90;;;;;;5031818;28;20049;-66
2021/12/14 06:48:09;;;;;;;57.60;26.55;;;7.90;99.90;;;;;;5032520;28;20071;-65
2021/12/14 06:50:49;;;;;;;58.17;28.02;;;7.90;99.90;;;;;;5034470;28;20048;-67
2021/12/14 06:53:18;;;;;;;56.13;26.02;;;8.00;99.90;;;;;;5031752;28;20041;-67
2021/12/14 06:55:45;;;;;;;58.03;28.50;;;7.90;99.90;;;;;;5031346;28;20140;-67
2021/12/14 06:58:15;;;;;;;61.58;27.80;;;8.00;99.90;;;;;;5032808;28;20306;-67
2021/12/14 07:00:48;;;;;;;66.72;26.98;;;8.00;99.90;;;;;;5051541;28;20127;-67
2021/12/14 07:03:15;;;;;;;54.30;24.65;;;8.00;99.90;;;;;;5030809;28;20045;-66
2021/12/14 07:05:45;;;;;;;53.72;27.55;;;8.00;99.90;;;;;;5016233;28;20089;-67
2021/12/14 07:08:14;;;;;;;55.28;25.85;;;8.00;99.90;;;;;;5032535;28;20063;-68
2021/12/14 07:10:42;;;;;;;57.78;27.02;;;8.00;99.90;;;;;;5050574;28;20143;-67
2021/12/14 07:13:20;;;;;;;58.28;28.02;;;8.10;99.90;;;;;;5031261;28;20106;-66
2021/12/14 07:15:46;;;;;;;57.80;28.85;;;8.00;99.90;;;;;;5028654;28;20065;-67
2021/12/14 07:18:12;;;;;;;60.38;28.95;;;8.00;99.90;;;;;;5032445;28;20100;-65
2021/12/14 07:20:45;;;;;;;61.17;27.90;;;8.00;99.90;;;;;;5032969;28;20435;-67
2021/12/14 07:23:32;;;;;;;61.33;28.48;;;8.00;99.90;;;;;;5032064;28;20056;-66
2021/12/14 07:26:07;;;;;;;66.82;29.10;;;8.00;99.90;;;;;;5046025;28;20045;-67
2021/12/14 07:28:39;;;;;;;63.53;29.75;;;7.90;99.90;;;;;;5030261;28;20103;-66
2021/12/14 07:31:14;;;;;;;70.85;30.05;;;7.90;99.90;;;;;;5030518;28;20501;-67
2021/12/14 07:33:54;;;;;;;68.18;30.77;;;7.90;99.90;;;;;;5047954;28;20039;-67
2021/12/14 07:36:40;;;;;;;71.03;31.42;;;7.90;99.90;;;;;;5032507;28;20056;-67
2021/12/14 07:39:12;;;;;;;73.43;32.28;;;7.80;99.90;;;;;;5026951;28;20060;-67
2021/12/14 07:41:45;;;;;;;70.50;31.63;;;7.80;99.90;;;;;;5029354;28;20063;-67
2021/12/14 07:44:17;;;;;;;76.15;32.80;;;7.80;99.90;;;;;;5030520;28;20043;-67
2021/12/14 07:46:47;;;;;;;73.15;32.67;;;7.80;99.90;;;;;;5031861;28;20040;-67
2021/12/14 07:49:33;;;;;;;75.32;31.20;;;7.80;99.90;;;;;;5033098;28;20069;-68
2021/12/14 07:52:21;;;;;;;76.05;32.20;;;7.80;99.90;;;;;;5018171;28;20096;-68
2021/12/14 07:54:53;;;;;;;75.40;32.20;;;7.80;99.90;;;;;;5040812;28;20192;-68
2021/12/14 07:57:28;;;;;;;82.30;33.03;;;7.80;99.90;;;;;;5031139;28;20039;-67
2021/12/14 07:59:57;;;;;;;85.88;34.78;;;7.80;99.90;;;;;;5029844;28;20044;-68
2021/12/14 08:02:36;;;;;;;89.00;34.50;;;7.80;99.90;;;;;;5014016;28;20037;-68
2021/12/14 08:05:26;;;;;;;89.57;35.33;;;7.80;99.90;;;;;;5031858;28;20107;-67
2021/12/14 08:08:10;;;;;;;91.25;35.72;;;7.80;99.90;;;;;;5031213;28;20075;-68
2021/12/14 08:10:45;;;;;;;87.97;34.58;;;7.80;99.90;;;;;;5029319;28;20381;-66
2021/12/14 08:13:14;;;;;;;93.18;35.60;;;7.80;99.90;;;;;;5047738;28;20044;-67
2021/12/14 08:15:47;;;;;;;87.68;34.95;;;7.80;99.90;;;;;;5029489;28;20485;-68
2021/12/14 08:18:21;;;;;;;91.82;36.45;;;7.80;99.90;;;;;;5032031;28;20189;-67
2021/12/14 08:20:48;;;;;;;91.13;36.58;;;7.80;99.90;;;;;;5022620;28;20041;-67
2021/12/14 08:23:14;;;;;;;93.28;35.92;;;7.80;99.90;;;;;;5028542;28;20063;-67
2021/12/14 08:25:40;;;;;;;90.78;36.08;;;7.90;99.90;;;;;;5032311;28;20041;-67
2021/12/14 08:28:07;;;;;;;94.72;35.03;;;7.90;99.90;;;;;;5031112;28;20203;-67
2021/12/14 08:30:36;;;;;;;89.65;35.10;;;7.90;99.90;;;;;;5014584;28;20029;-67
2021/12/14 08:33:04;;;;;;;99.90;36.67;;;8.00;99.90;;;;;;5016464;28;20048;-67
2021/12/14 08:35:29;;;;;;;94.07;36.72;;;8.00;99.90;;;;;;5049279;28;20068;-67
2021/12/14 08:37:59;;;;;;;95.47;36.30;;;8.00;99.90;;;;;;5032074;28;20786;-67
2021/12/14 08:40:37;;;;;;;92.22;35.95;;;8.00;99.90;;;;;;5021404;28;20032;-67
2021/12/14 08:43:13;;;;;;;93.38;37.58;;;8.10;99.90;;;;;;5024214;28;20053;-66
2021/12/14 08:46:00;;;;;;;95.95;36.28;;;8.00;99.90;;;;;;5041810;28;20045;-67
2021/12/14 08:48:44;;;;;;;90.75;35.47;;;8.10;99.90;;;;;;5028041;28;20043;-68
2021/12/14 08:51:20;;;;;;;97.25;37.63;;;8.10;99.90;;;;;;5025033;28;20036;-67
2021/12/14 08:54:15;;;;;;;95.40;37.13;;;8.10;99.90;;;;;;5031510;28;20472;-68
2021/12/14 08:56:45;;;;;;;85.40;35.88;;;8.20;99.90;;;;;;5029022;28;20045;-67
2021/12/14 08:59:11;;;;;;;;;;;8.10;99.90;;;;;;5013561;28;20052;-67
2021/12/14 09:01:40;;;;;;;84.65;34.17;;;8.10;99.90;;;;;;5028535;28;19971;-67
2021/12/14 09:04:17;;;;;;;90.50;36.90;;;8.20;99.90;;;;;;5028849;28;20094;-67
2021/12/14 09:06:48;;;;;;;85.90;35.00;;;8.20;99.90;;;;;;5029932;28;20040;-67
2021/12/14 09:09:17;;;;;;;87.13;36.65;;;8.20;99.90;;;;;;5031764;28;20049;-68
2021/12/14 09:11:46;;;;;;;86.80;36.45;;;8.20;99.90;;;;;;5008466;28;20041;-67
2021/12/14 09:14:14;;;;;;;84.85;36.13;;;8.20;99.90;;;;;;4994597;28;20036;-67
2021/12/14 09:16:43;;;;;;;85.40;35.25;;;8.20;99.90;;;;;;4998323;28;20130;-67
2021/12/14 09:19:19;;;;;;;80.70;33.47;;;8.20;99.90;;;;;;4998639;28;20372;-67
2021/12/14 09:21:47;;;;;;;81.68;35.25;;;8.20;99.90;;;;;;5011207;28;20056;-68
2021/12/14 09:24:16;;;;;;;83.25;35.28;;;8.20;99.90;;;;;;5017558;28;20117;-67
2021/12/14 09:26:45;;;;;;;84.65;34.50;;;8.20;99.90;;;;;;5018599;28;20687;-67
2021/12/14 09:29:16;;;;;;;83.38;35.42;;;8.30;99.90;;;;;;5029108;28;20083;-67
2021/12/14 09:31:43;;;;;;;81.22;34.80;;;8.30;99.90;;;;;;5025663;28;20211;-67
2021/12/14 09:34:12;;;;;;;86.15;36.53;;;8.30;99.90;;;;;;5032099;28;20044;-68
2021/12/14 09:36:39;;;;;;;79.22;34.53;;;8.30;99.90;;;;;;5026340;28;20033;-66
2021/12/14 09:39:22;;;;;;;84.00;35.78;;;8.30;99.90;;;;;;5029475;28;20094;-67
2021/12/14 09:41:53;;;;;;;79.97;35.60;;;8.40;99.90;;;;;;5011232;28;20049;-69
2021/12/14 09:44:21;;;;;;;79.20;33.83;;;8.40;99.90;;;;;;4986176;28;20034;-66
2021/12/14 09:46:49;;;;;;;74.65;33.58;;;8.40;99.90;;;;;;4996254;28;20041;-67
2021/12/14 09:49:17;;;;;;;74.57;33.40;;;8.40;99.90;;;;;;5031440;28;20037;-68
2021/12/14 09:51:46;;;;;;;74.22;34.38;;;8.50;99.90;;;;;;5027599;28;20037;-67
2021/12/14 09:54:16;;;;;;;77.30;35.38;;;8.50;99.90;;;;;;5029368;28;20689;-67
2021/12/14 09:56:47;;;;;;;81.10;33.47;;;8.50;99.90;;;;;;5028108;28;20083;-67
2021/12/14 09:59:15;;;;;;;78.22;34.03;;;8.50;99.90;;;;;;5030698;28;20041;-68
2021/12/14 10:01:43;;;;;;;79.78;33.97;;;8.50;99.90;;;;;;5027870;28;20043;-68
2021/12/14 10:04:14;;;;;;;76.15;34.03;;;8.50;99.90;;;;;;5015306;28;20108;-66
2021/12/14 10:06:40;;;;;;;69.93;32.35;;;8.50;99.90;;;;;;5029281;28;20114;-67
2021/12/14 10:09:11;;;;;;;75.57;33.00;;;8.60;99.90;;;;;;5028033;28;20540;-67
2021/12/14 10:14:26;;;;;;;76.20;32.47;;;8.60;99.90;;;;;;5028846;28;20053;-67
2021/12/14 10:16:52;;;;;;;70.90;31.95;;;8.60;99.90;;;;;;5024375;28;20403;-68
2021/12/14 10:19:26;;;;;;;70.32;32.53;;;8.60;99.90;;;;;;5031690;28;20037;-68
2021/12/14 10:21:57;;;;;;;73.65;32.22;;;8.60;99.90;;;;;;5030673;28;20112;-68
2021/12/14 10:24:23;;;;;;;71.28;32.33;;;8.60;99.90;;;;;;5023526;28;20041;-68
2021/12/14 10:26:55;;;;;;;73.13;31.95;;;8.60;99.90;;;;;;5031802;28;20381;-68
2021/12/14 10:29:21;;;;;;;71.28;33.05;;;8.50;99.90;;;;;;5051343;28;20126;-67
2021/12/14 10:32:02;;;;;;;71.20;32.15;;;8.50;99.90;;;;;;5034261;28;20488;-68
2021/12/14 10:34:41;;;;;;;72.68;32.65;;;8.50;99.90;;;;;;5030846;28;20414;-67
2021/12/14 10:37:18;;;;;;;74.93;31.73;;;8.50;99.90;;;;;;5034167;28;20443;-68
2021/12/14 10:45:10;;;;;;;74.32;32.15;;;8.50;99.90;;;;;;5030323;28;20409;-68
2021/12/14 10:47:36;;;;;;;74.00;32.42;;;8.50;99.90;;;;;;5013598;28;20034;-68
2021/12/14 10:50:07;;;;;;;73.45;31.40;;;8.50;99.90;;;;;;5053319;28;20431;-67
2021/12/14 10:52:33;;;;;;;74.22;33.47;;;8.60;99.90;;;;;;5022318;28;20083;-67
2021/12/14 10:55:08;;;;;;;72.32;32.50;;;8.60;99.90;;;;;;5014999;28;20037;-68
2021/12/14 10:57:35;;;;;;;72.47;31.50;;;8.60;99.90;;;;;;5026724;28;20033;-68
2021/12/14 11:00:09;;;;;;;66.00;31.13;;;8.60;99.90;;;;;;5033032;28;20052;-68
2021/12/14 11:02:40;;;;;;;70.78;32.25;;;8.70;99.90;;;;;;5032702;28;20041;-67
2021/12/14 11:05:14;;;;;;;67.68;29.13;;;8.70;99.90;;;;;;5051509;28;20125;-68
2021/12/14 11:07:43;;;;;;;65.75;29.83;;;8.70;99.90;;;;;;5052256;28;20037;-68
2021/12/14 11:10:12;;;;;;;66.43;30.00;;;8.70;99.90;;;;;;5032385;28;20402;-67
2021/12/14 11:12:41;;;;;;;67.00;30.55;;;8.70;99.90;;;;;;5032071;28;20098;-68
2021/12/14 11:15:18;;;;;;;67.40;28.67;;;8.60;99.90;;;;;;5033447;28;20051;-67
2021/12/14 11:20:51;;;;;;;64.85;27.67;;;8.60;99.90;;;;;;5034203;28;20052;-67
2021/12/14 11:23:34;;;;;;;66.15;28.55;;;8.60;99.90;;;;;;5029054;28;20140;-68
2021/12/14 11:26:05;;;;;;;66.90;28.63;;;8.60;99.90;;;;;;5032742;28;20041;-68
2021/12/14 11:29:18;;;;;;;64.65;29.30;;;8.60;99.90;;;;;;5031205;28;20155;-67
2021/12/14 11:31:45;;;;;;;68.65;27.77;;;8.60;99.90;;;;;;4985503;28;20397;-67
2021/12/14 11:34:18;;;;;;;62.80;28.17;;;8.60;99.90;;;;;;4999450;28;20045;-68
2021/12/14 11:36:51;;;;;;;68.55;29.02;;;8.60;99.90;;;;;;5009763;28;20029;-67
2021/12/14 11:39:25;;;;;;;64.63;27.83;;;8.60;99.90;;;;;;5032205;28;20041;-68
2021/12/14 11:41:50;;;;;;;63.95;27.65;;;8.60;99.90;;;;;;5032015;28;20044;-68
2021/12/14 11:44:50;;;;;;;65.57;27.52;;;8.60;99.90;;;;;;5031823;28;20048;-66
2021/12/14 11:50:04;;;;;;;63.67;26.98;;;8.60;99.90;;;;;;5029274;28;20051;-67
2021/12/14 11:52:50;;;;;;;63.15;27.67;;;8.70;99.90;;;;;;5025238;28;20086;-68
2021/12/14 11:55:47;;;;;;;65.88;28.20;;;8.70;99.90;;;;;;5016692;28;20069;-67
2021/12/14 11:58:43;;;;;;;66.28;27.52;;;8.70;99.90;;;;;;5031622;28;20491;-68
2021/12/14 12:01:29;;;;;;;62.95;26.70;;;8.60;99.90;;;;;;5031659;28;20041;-67
2021/12/14 12:04:07;;;;;;;62.63;27.05;;;8.60;99.90;;;;;;5032989;28;20468;-69
2021/12/14 12:09:37;;;;;;;59.65;26.33;;;8.70;99.90;;;;;;5018855;28;20124;-68
2021/12/14 12:12:06;;;;;;;59.95;26.70;;;8.70;99.90;;;;;;5031409;28;20496;-68
2021/12/14 12:14:42;;;;;;;60.92;25.90;;;8.70;99.90;;;;;;5031948;28;20128;-69
2021/12/14 12:17:18;;;;;;;65.38;26.02;;;8.70;99.90;;;;;;5032365;28;20076;-68
2021/12/14 12:20:13;;;;;;;60.90;26.83;;;8.70;99.90;;;;;;5033777;28;20040;-68
2021/12/14 12:22:41;;;;;;;58.35;24.58;;;8.60;99.90;;;;;;4993725;28;20080;-68
2021/12/14 12:25:18;;;;;;;65.82;26.63;;;8.70;99.90;;;;;;5015653;28;20052;-68
2021/12/14 12:27:54;;;;;;;61.78;26.30;;;8.70;99.90;;;;;;5029234;28;20040;-68
2021/12/14 12:30:47;;;;;;;64.20;25.48;;;8.70;99.90;;;;;;5028182;28;20115;-68
2021/12/14 12:33:33;;;;;;;58.55;24.77;;;8.70;99.90;;;;;;5032104;28;20132;-68
2021/12/14 12:36:04;;;;;;;61.58;24.17;;;8.70;99.90;;;;;;5031436;28;20032;-68
2021/12/14 12:38:53;;;;;;;57.55;23.38;;;8.70;99.90;;;;;;5015685;28;20088;-68
2021/12/14 12:41:44;;;;;;;57.58;24.55;;;8.70;99.90;;;;;;4997883;28;20137;-69
2021/12/14 12:44:15;;;;;;;56.38;24.48;;;8.70;99.90;;;;;;5027859;28;20059;-68
2021/12/14 12:46:48;;;;;;;;;;;8.80;99.90;;;;;;5019968;28;20471;-69
2021/12/14 12:49:24;;;;;;;55.83;22.90;;;8.80;99.90;;;;;;5018749;28;20386;-68
2021/12/14 12:51:56;;;;;;;58.58;22.98;;;8.80;99.90;;;;;;4998283;28;20040;-68
2021/12/14 12:54:24;;;;;;;59.50;23.58;;;8.80;99.90;;;;;;5027793;28;20046;-67
2021/12/14 12:57:07;;;;;;;55.40;22.20;;;8.80;99.90;;;;;;5018647;28;20037;-68
2021/12/14 12:59:43;;;;;;;52.20;21.90;;;8.80;99.90;;;;;;5029000;28;20029;-68
2021/12/14 13:02:18;;;;;;;53.97;22.23;;;8.80;99.90;;;;;;5029821;28;20048;-66
2021/12/14 13:04:49;;;;;;;50.25;21.50;;;8.80;99.90;;;;;;5030215;28;20052;-68
2021/12/14 13:07:15;;;;;;;51.97;23.00;;;8.90;99.90;;;;;;5015096;28;20040;-66
2021/12/14 13:10:26;;;;;;;54.90;22.30;;;8.90;99.90;;;;;;5026073;28;20037;-69
2021/12/14 13:13:26;;;;;;;56.50;22.65;;;8.90;99.90;;;;;;4942446;28;20054;-68
2021/12/14 13:16:02;;;;;;;57.22;22.83;;;8.90;99.90;;;;;;4964872;28;21009;-69
2021/12/14 13:18:33;;;;;;;57.90;21.63;;;9.00;99.90;;;;;;5015864;28;20051;-68
2021/12/14 13:21:13;;;;;;;56.35;22.08;;;8.90;99.90;;;;;;5003190;28;20052;-68
2021/12/14 13:23:51;;;;;;;60.20;22.35;;;9.00;99.90;;;;;;5007607;28;20095;-67
2021/12/14 13:26:38;;;;;;;60.15;22.75;;;9.00;99.90;;;;;;5009483;28;20476;-68
2021/12/14 13:29:13;;;;;;;53.42;21.65;;;9.00;99.90;;;;;;5008884;28;20080;-68
2021/12/14 13:31:43;;;;;;;53.65;21.80;;;9.00;99.90;;;;;;4986339;28;20037;-70
2021/12/14 13:34:18;;;;;;;56.92;21.63;;;9.00;99.90;;;;;;5012129;28;20048;-68
2021/12/14 13:36:44;;;;;;;46.08;19.83;;;9.00;99.90;;;;;;4995275;28;20124;-68
2021/12/14 13:39:12;;;;;;;53.10;21.88;;;9.00;99.90;;;;;;5009790;28;20672;-68
2021/12/14 13:42:00;;;;;;;45.25;18.88;;;9.00;99.90;;;;;;5009124;28;20073;-68
2021/12/14 13:44:32;;;;;;;56.42;21.52;;;9.00;99.90;;;;;;5005669;28;20056;-69
2021/12/14 13:47:00;;;;;;;49.83;20.02;;;9.00;99.90;;;;;;5025908;28;20069;-68
2021/12/14 13:49:26;;;;;;;51.55;20.90;;;9.00;99.90;;;;;;5007010;28;20492;-67
2021/12/14 13:51:53;;;;;;;51.95;20.38;;;9.00;99.90;;;;;;5002941;28;20351;-68